sensor_id;sensor_type;location;lat;lon;timestamp;P1;durP1;ratioP1;P2;durP2;ratioP2
22737;SDS011;11536;50.860;4.286;2022-12-11T00:01:24;27.33;;;12.27;;
22737;SDS011;11536;50.860;4.286;2022-12-11T00:03:49;23.20;;;11.65;;
22737;SDS011;11536;50.860;4.286;2022-12-11T00:06:15;28.00;;;12.73;;
22737;SDS011;11536;50.860;4.286;2022-12-11T00:08:43;24.50;;;11.25;;
22737;SDS011;11536;50.860;4.286;2022-12-11T00:11:10;22.75;;;11.70;;
22737;SDS011;11536;50.860;4.286;2022-12-11T00:13:37;24.67;;;11.75;;
22737;SDS011;11536;50.860;4.286;2022-12-11T00:16:03;23.40;;;11.48;;
22737;SDS011;11536;50.860;4.286;2022-12-11T00:18:29;24.05;;;11.27;;
22737;SDS011;11536;50.860;4.286;2022-12-11T00:20:58;28.05;;;12.43;;
22737;SDS011;11536;50.860;4.286;2022-12-11T00:23:28;27.60;;;12.60;;
22737;SDS011;11536;50.860;4.286;2022-12-11T00:25:53;25.05;;;11.82;;
22737;SDS011;11536;50.860;4.286;2022-12-11T00:28:20;26.50;;;11.82;;
22737;SDS011;11536;50.860;4.286;2022-12-11T00:30:46;24.33;;;12.13;;
22737;SDS011;11536;50.860;4.286;2022-12-11T00:33:12;25.13;;;12.38;;
22737;SDS011;11536;50.860;4.286;2022-12-11T00:35:39;27.77;;;12.35;;
22737;SDS011;11536;50.860;4.286;2022-12-11T00:38:06;24.25;;;11.95;;
22737;SDS011;11536;50.860;4.286;2022-12-11T00:40:33;26.67;;;12.20;;
22737;SDS011;11536;50.860;4.286;2022-12-11T00:43:00;26.70;;;12.98;;
22737;SDS011;11536;50.860;4.286;2022-12-11T00:45:25;27.40;;;12.80;;
22737;SDS011;11536;50.860;4.286;2022-12-11T00:47:51;28.52;;;13.75;;
22737;SDS011;11536;50.860;4.286;2022-12-11T00:50:17;30.80;;;13.85;;
22737;SDS011;11536;50.860;4.286;2022-12-11T00:52:42;29.10;;;13.38;;
22737;SDS011;11536;50.860;4.286;2022-12-11T00:55:08;27.50;;;13.68;;
22737;SDS011;11536;50.860;4.286;2022-12-11T00:57:33;24.95;;;12.70;;
22737;SDS011;11536;50.860;4.286;2022-12-11T00:59:59;27.60;;;13.00;;
22737;SDS011;11536;50.860;4.286;2022-12-11T01:02:24;26.95;;;13.20;;
22737;SDS011;11536;50.860;4.286;2022-12-11T01:04:50;29.80;;;13.02;;
22737;SDS011;11536;50.860;4.286;2022-12-11T01:07:16;28.98;;;13.25;;
22737;SDS011;11536;50.860;4.286;2022-12-11T01:09:41;27.58;;;13.65;;
22737;SDS011;11536;50.860;4.286;2022-12-11T01:12:25;28.63;;;12.35;;
22737;SDS011;11536;50.860;4.286;2022-12-11T01:14:52;28.00;;;12.90;;
22737;SDS011;11536;50.860;4.286;2022-12-11T01:17:18;30.23;;;12.65;;
22737;SDS011;11536;50.860;4.286;2022-12-11T01:19:43;24.83;;;12.65;;
22737;SDS011;11536;50.860;4.286;2022-12-11T01:22:09;25.35;;;12.63;;
22737;SDS011;11536;50.860;4.286;2022-12-11T01:24:35;27.35;;;13.43;;
22737;SDS011;11536;50.860;4.286;2022-12-11T01:27:02;25.90;;;13.05;;
22737;SDS011;11536;50.860;4.286;2022-12-11T01:29:28;26.73;;;13.63;;
22737;SDS011;11536;50.860;4.286;2022-12-11T01:31:53;29.48;;;13.43;;
22737;SDS011;11536;50.860;4.286;2022-12-11T01:34:19;28.92;;;12.98;;
22737;SDS011;11536;50.860;4.286;2022-12-11T01:36:45;27.67;;;13.95;;
22737;SDS011;11536;50.860;4.286;2022-12-11T01:39:10;28.63;;;13.77;;
22737;SDS011;11536;50.860;4.286;2022-12-11T01:41:36;28.60;;;13.05;;
22737;SDS011;11536;50.860;4.286;2022-12-11T01:46:32;28.95;;;13.63;;
22737;SDS011;11536;50.860;4.286;2022-12-11T01:49:00;29.27;;;14.02;;
22737;SDS011;11536;50.860;4.286;2022-12-11T01:51:28;30.38;;;13.77;;
22737;SDS011;11536;50.860;4.286;2022-12-11T01:54:01;29.77;;;13.55;;
22737;SDS011;11536;50.860;4.286;2022-12-11T01:56:31;27.25;;;13.18;;
22737;SDS011;11536;50.860;4.286;2022-12-11T01:59:01;28.58;;;13.98;;
22737;SDS011;11536;50.860;4.286;2022-12-11T02:01:36;29.58;;;13.77;;
22737;SDS011;11536;50.860;4.286;2022-12-11T02:04:09;27.15;;;13.95;;
22737;SDS011;11536;50.860;4.286;2022-12-11T02:09:12;27.25;;;13.05;;
22737;SDS011;11536;50.860;4.286;2022-12-11T02:11:44;30.13;;;14.65;;
22737;SDS011;11536;50.860;4.286;2022-12-11T02:14:14;31.67;;;13.80;;
22737;SDS011;11536;50.860;4.286;2022-12-11T02:16:58;29.42;;;14.45;;
22737;SDS011;11536;50.860;4.286;2022-12-11T02:22:33;31.90;;;14.10;;
22737;SDS011;11536;50.860;4.286;2022-12-11T02:27:51;30.42;;;14.38;;
22737;SDS011;11536;50.860;4.286;2022-12-11T02:30:27;29.90;;;14.57;;
22737;SDS011;11536;50.860;4.286;2022-12-11T02:32:54;30.80;;;15.13;;
22737;SDS011;11536;50.860;4.286;2022-12-11T02:35:23;32.17;;;14.48;;
22737;SDS011;11536;50.860;4.286;2022-12-11T02:38:03;31.25;;;14.43;;
22737;SDS011;11536;50.860;4.286;2022-12-11T02:40:37;28.65;;;13.82;;
22737;SDS011;11536;50.860;4.286;2022-12-11T02:43:12;28.30;;;13.88;;
22737;SDS011;11536;50.860;4.286;2022-12-11T02:45:40;28.73;;;13.57;;
22737;SDS011;11536;50.860;4.286;2022-12-11T02:48:07;28.17;;;13.60;;
22737;SDS011;11536;50.860;4.286;2022-12-11T02:50:35;31.25;;;15.40;;
22737;SDS011;11536;50.860;4.286;2022-12-11T02:53:06;27.38;;;14.05;;
22737;SDS011;11536;50.860;4.286;2022-12-11T02:55:36;28.35;;;14.05;;
22737;SDS011;11536;50.860;4.286;2022-12-11T02:58:06;29.92;;;14.23;;
22737;SDS011;11536;50.860;4.286;2022-12-11T03:00:44;29.92;;;15.77;;
22737;SDS011;11536;50.860;4.286;2022-12-11T03:03:10;33.53;;;15.43;;
22737;SDS011;11536;50.860;4.286;2022-12-11T03:05:36;31.70;;;15.52;;
22737;SDS011;11536;50.860;4.286;2022-12-11T03:08:02;34.55;;;15.70;;
22737;SDS011;11536;50.860;4.286;2022-12-11T03:10:28;34.22;;;15.57;;
22737;SDS011;11536;50.860;4.286;2022-12-11T03:12:54;35.83;;;15.63;;
22737;SDS011;11536;50.860;4.286;2022-12-11T03:15:22;33.20;;;16.52;;
22737;SDS011;11536;50.860;4.286;2022-12-11T03:20:35;33.58;;;15.80;;
22737;SDS011;11536;50.860;4.286;2022-12-11T03:26:02;33.05;;;15.05;;
22737;SDS011;11536;50.860;4.286;2022-12-11T03:28:38;30.15;;;15.10;;
22737;SDS011;11536;50.860;4.286;2022-12-11T03:34:05;36.03;;;15.93;;
22737;SDS011;11536;50.860;4.286;2022-12-11T03:36:42;35.25;;;16.42;;
22737;SDS011;11536;50.860;4.286;2022-12-11T03:39:14;35.63;;;16.98;;
22737;SDS011;11536;50.860;4.286;2022-12-11T03:41:43;33.38;;;15.75;;
22737;SDS011;11536;50.860;4.286;2022-12-11T03:44:12;34.35;;;16.35;;
22737;SDS011;11536;50.860;4.286;2022-12-11T03:46:38;36.22;;;16.25;;
22737;SDS011;11536;50.860;4.286;2022-12-11T03:49:12;32.45;;;16.15;;
22737;SDS011;11536;50.860;4.286;2022-12-11T03:51:41;34.05;;;15.88;;
22737;SDS011;11536;50.860;4.286;2022-12-11T03:54:08;36.45;;;16.45;;
22737;SDS011;11536;50.860;4.286;2022-12-11T03:56:35;34.45;;;15.90;;
22737;SDS011;11536;50.860;4.286;2022-12-11T03:59:02;33.72;;;16.42;;
22737;SDS011;11536;50.860;4.286;2022-12-11T04:01:27;32.53;;;15.27;;
22737;SDS011;11536;50.860;4.286;2022-12-11T04:03:53;37.92;;;17.15;;
22737;SDS011;11536;50.860;4.286;2022-12-11T04:06:19;35.80;;;15.60;;
22737;SDS011;11536;50.860;4.286;2022-12-11T04:08:44;37.00;;;16.98;;
22737;SDS011;11536;50.860;4.286;2022-12-11T04:11:10;35.13;;;15.23;;
22737;SDS011;11536;50.860;4.286;2022-12-11T04:13:54;35.88;;;16.73;;
22737;SDS011;11536;50.860;4.286;2022-12-11T04:16:38;40.28;;;17.10;;
22737;SDS011;11536;50.860;4.286;2022-12-11T04:19:04;39.85;;;17.85;;
22737;SDS011;11536;50.860;4.286;2022-12-11T04:21:48;37.17;;;17.92;;
22737;SDS011;11536;50.860;4.286;2022-12-11T04:24:32;38.25;;;17.42;;
22737;SDS011;11536;50.860;4.286;2022-12-11T04:26:58;36.90;;;16.63;;
22737;SDS011;11536;50.860;4.286;2022-12-11T04:29:24;39.60;;;17.13;;
22737;SDS011;11536;50.860;4.286;2022-12-11T04:31:49;42.05;;;17.63;;
22737;SDS011;11536;50.860;4.286;2022-12-11T04:34:15;41.05;;;17.23;;
22737;SDS011;11536;50.860;4.286;2022-12-11T04:36:41;37.92;;;16.80;;
22737;SDS011;11536;50.860;4.286;2022-12-11T04:39:07;38.42;;;18.45;;
22737;SDS011;11536;50.860;4.286;2022-12-11T04:41:33;41.58;;;17.42;;
22737;SDS011;11536;50.860;4.286;2022-12-11T04:43:59;42.28;;;19.10;;
22737;SDS011;11536;50.860;4.286;2022-12-11T04:46:24;40.30;;;18.00;;
22737;SDS011;11536;50.860;4.286;2022-12-11T04:48:50;42.00;;;17.75;;
22737;SDS011;11536;50.860;4.286;2022-12-11T04:51:17;39.17;;;16.98;;
22737;SDS011;11536;50.860;4.286;2022-12-11T04:53:43;40.38;;;17.50;;
22737;SDS011;11536;50.860;4.286;2022-12-11T04:56:10;39.10;;;18.83;;
22737;SDS011;11536;50.860;4.286;2022-12-11T04:58:38;42.10;;;17.85;;
22737;SDS011;11536;50.860;4.286;2022-12-11T05:01:08;41.95;;;18.90;;
22737;SDS011;11536;50.860;4.286;2022-12-11T05:03:34;39.53;;;17.65;;
22737;SDS011;11536;50.860;4.286;2022-12-11T05:06:00;39.28;;;18.00;;
22737;SDS011;11536;50.860;4.286;2022-12-11T05:08:26;43.67;;;19.27;;
22737;SDS011;11536;50.860;4.286;2022-12-11T05:10:55;43.35;;;17.75;;
22737;SDS011;11536;50.860;4.286;2022-12-11T05:13:21;39.15;;;17.58;;
22737;SDS011;11536;50.860;4.286;2022-12-11T05:15:47;38.65;;;17.33;;
22737;SDS011;11536;50.860;4.286;2022-12-11T05:18:12;41.58;;;18.33;;
22737;SDS011;11536;50.860;4.286;2022-12-11T05:20:38;38.35;;;17.60;;
22737;SDS011;11536;50.860;4.286;2022-12-11T05:23:04;41.30;;;18.40;;
22737;SDS011;11536;50.860;4.286;2022-12-11T05:25:29;43.75;;;17.38;;
22737;SDS011;11536;50.860;4.286;2022-12-11T05:27:55;45.70;;;19.65;;
22737;SDS011;11536;50.860;4.286;2022-12-11T05:30:20;40.88;;;18.80;;
22737;SDS011;11536;50.860;4.286;2022-12-11T05:32:46;41.03;;;17.63;;
22737;SDS011;11536;50.860;4.286;2022-12-11T05:35:11;39.38;;;18.48;;
22737;SDS011;11536;50.860;4.286;2022-12-11T05:37:37;39.45;;;17.80;;
22737;SDS011;11536;50.860;4.286;2022-12-11T05:40:03;38.22;;;16.60;;
22737;SDS011;11536;50.860;4.286;2022-12-11T05:42:30;41.50;;;17.45;;
22737;SDS011;11536;50.860;4.286;2022-12-11T05:44:56;39.17;;;18.58;;
22737;SDS011;11536;50.860;4.286;2022-12-11T05:47:22;41.38;;;17.35;;
22737;SDS011;11536;50.860;4.286;2022-12-11T05:49:47;43.10;;;18.25;;
22737;SDS011;11536;50.860;4.286;2022-12-11T05:52:13;44.15;;;18.83;;
22737;SDS011;11536;50.860;4.286;2022-12-11T05:54:40;41.97;;;18.50;;
22737;SDS011;11536;50.860;4.286;2022-12-11T05:57:06;39.70;;;17.25;;
22737;SDS011;11536;50.860;4.286;2022-12-11T05:59:32;38.90;;;18.40;;
22737;SDS011;11536;50.860;4.286;2022-12-11T06:01:57;38.50;;;17.60;;
22737;SDS011;11536;50.860;4.286;2022-12-11T06:04:23;40.15;;;18.15;;
22737;SDS011;11536;50.860;4.286;2022-12-11T06:06:48;38.42;;;18.40;;
22737;SDS011;11536;50.860;4.286;2022-12-11T06:09:14;41.10;;;17.90;;
22737;SDS011;11536;50.860;4.286;2022-12-11T06:11:41;41.58;;;19.42;;
22737;SDS011;11536;50.860;4.286;2022-12-11T06:14:07;42.55;;;18.75;;
22737;SDS011;11536;50.860;4.286;2022-12-11T06:16:34;40.42;;;17.50;;
22737;SDS011;11536;50.860;4.286;2022-12-11T06:19:00;38.25;;;17.48;;
22737;SDS011;11536;50.860;4.286;2022-12-11T06:21:27;40.72;;;18.13;;
22737;SDS011;11536;50.860;4.286;2022-12-11T06:23:55;45.03;;;19.00;;
22737;SDS011;11536;50.860;4.286;2022-12-11T06:26:22;38.17;;;17.88;;
22737;SDS011;11536;50.860;4.286;2022-12-11T06:28:49;41.72;;;18.95;;
22737;SDS011;11536;50.860;4.286;2022-12-11T06:31:15;42.90;;;18.45;;
22737;SDS011;11536;50.860;4.286;2022-12-11T06:33:41;38.50;;;18.38;;
22737;SDS011;11536;50.860;4.286;2022-12-11T06:36:08;41.25;;;18.60;;
22737;SDS011;11536;50.860;4.286;2022-12-11T06:38:36;39.72;;;17.50;;
22737;SDS011;11536;50.860;4.286;2022-12-11T06:41:03;38.92;;;18.08;;
22737;SDS011;11536;50.860;4.286;2022-12-11T06:43:33;46.13;;;18.33;;
22737;SDS011;11536;50.860;4.286;2022-12-11T06:46:06;40.75;;;17.85;;
22737;SDS011;11536;50.860;4.286;2022-12-11T06:48:36;40.85;;;17.85;;
22737;SDS011;11536;50.860;4.286;2022-12-11T06:51:06;41.40;;;18.15;;
22737;SDS011;11536;50.860;4.286;2022-12-11T06:53:36;43.13;;;18.35;;
22737;SDS011;11536;50.860;4.286;2022-12-11T06:56:03;38.90;;;16.70;;
22737;SDS011;11536;50.860;4.286;2022-12-11T06:58:30;39.60;;;17.40;;
22737;SDS011;11536;50.860;4.286;2022-12-11T07:00:55;37.70;;;17.50;;
22737;SDS011;11536;50.860;4.286;2022-12-11T07:03:21;39.92;;;17.83;;
22737;SDS011;11536;50.860;4.286;2022-12-11T07:05:47;40.60;;;17.98;;
22737;SDS011;11536;50.860;4.286;2022-12-11T07:08:12;37.63;;;16.90;;
22737;SDS011;11536;50.860;4.286;2022-12-11T07:10:38;42.00;;;16.98;;
22737;SDS011;11536;50.860;4.286;2022-12-11T07:13:04;38.22;;;16.02;;
22737;SDS011;11536;50.860;4.286;2022-12-11T07:15:29;41.25;;;17.08;;
22737;SDS011;11536;50.860;4.286;2022-12-11T07:17:55;39.28;;;16.95;;
22737;SDS011;11536;50.860;4.286;2022-12-11T07:20:21;40.53;;;17.02;;
22737;SDS011;11536;50.860;4.286;2022-12-11T07:22:46;43.55;;;18.02;;
22737;SDS011;11536;50.860;4.286;2022-12-11T07:25:12;43.28;;;17.17;;
22737;SDS011;11536;50.860;4.286;2022-12-11T07:27:38;41.42;;;17.02;;
22737;SDS011;11536;50.860;4.286;2022-12-11T07:30:04;41.88;;;17.67;;
22737;SDS011;11536;50.860;4.286;2022-12-11T07:32:30;42.97;;;17.80;;
22737;SDS011;11536;50.860;4.286;2022-12-11T07:34:55;43.33;;;17.58;;
22737;SDS011;11536;50.860;4.286;2022-12-11T07:37:21;40.88;;;18.08;;
22737;SDS011;11536;50.860;4.286;2022-12-11T07:39:46;47.97;;;17.92;;
22737;SDS011;11536;50.860;4.286;2022-12-11T07:42:13;81.65;;;42.47;;
22737;SDS011;11536;50.860;4.286;2022-12-11T07:44:38;44.08;;;17.42;;
22737;SDS011;11536;50.860;4.286;2022-12-11T07:47:04;41.17;;;17.02;;
22737;SDS011;11536;50.860;4.286;2022-12-11T07:49:29;42.53;;;17.30;;
22737;SDS011;11536;50.860;4.286;2022-12-11T07:51:55;41.78;;;17.27;;
22737;SDS011;11536;50.860;4.286;2022-12-11T07:54:21;44.25;;;17.60;;
22737;SDS011;11536;50.860;4.286;2022-12-11T07:56:47;40.78;;;16.92;;
22737;SDS011;11536;50.860;4.286;2022-12-11T07:59:12;39.38;;;16.65;;
22737;SDS011;11536;50.860;4.286;2022-12-11T08:01:38;39.63;;;17.77;;
22737;SDS011;11536;50.860;4.286;2022-12-11T08:04:07;41.33;;;17.42;;
22737;SDS011;11536;50.860;4.286;2022-12-11T08:06:35;43.35;;;17.67;;
22737;SDS011;11536;50.860;4.286;2022-12-11T08:09:02;42.90;;;16.80;;
22737;SDS011;11536;50.860;4.286;2022-12-11T08:11:30;39.58;;;16.60;;
22737;SDS011;11536;50.860;4.286;2022-12-11T08:13:57;42.63;;;17.15;;
22737;SDS011;11536;50.860;4.286;2022-12-11T08:16:23;41.80;;;17.25;;
22737;SDS011;11536;50.860;4.286;2022-12-11T08:18:50;37.15;;;16.83;;
22737;SDS011;11536;50.860;4.286;2022-12-11T08:23:42;40.83;;;17.20;;
22737;SDS011;11536;50.860;4.286;2022-12-11T08:26:10;42.50;;;16.83;;
22737;SDS011;11536;50.860;4.286;2022-12-11T08:28:37;44.38;;;18.08;;
22737;SDS011;11536;50.860;4.286;2022-12-11T08:31:04;40.65;;;17.67;;
22737;SDS011;11536;50.860;4.286;2022-12-11T08:33:32;42.15;;;17.30;;
22737;SDS011;11536;50.860;4.286;2022-12-11T08:36:00;78.38;;;31.30;;
22737;SDS011;11536;50.860;4.286;2022-12-11T08:38:27;39.85;;;16.90;;
22737;SDS011;11536;50.860;4.286;2022-12-11T08:40:53;40.83;;;17.92;;
22737;SDS011;11536;50.860;4.286;2022-12-11T08:43:18;40.33;;;16.08;;
22737;SDS011;11536;50.860;4.286;2022-12-11T08:45:45;36.15;;;16.10;;
22737;SDS011;11536;50.860;4.286;2022-12-11T08:48:10;44.05;;;17.98;;
22737;SDS011;11536;50.860;4.286;2022-12-11T08:50:36;36.80;;;16.05;;
22737;SDS011;11536;50.860;4.286;2022-12-11T08:53:02;41.95;;;17.95;;
22737;SDS011;11536;50.860;4.286;2022-12-11T08:55:28;40.22;;;16.95;;
22737;SDS011;11536;50.860;4.286;2022-12-11T08:57:53;39.33;;;16.38;;
22737;SDS011;11536;50.860;4.286;2022-12-11T09:00:19;39.35;;;17.00;;
22737;SDS011;11536;50.860;4.286;2022-12-11T09:02:46;36.00;;;16.10;;
22737;SDS011;11536;50.860;4.286;2022-12-11T09:05:12;36.10;;;16.42;;
22737;SDS011;11536;50.860;4.286;2022-12-11T09:07:37;37.28;;;16.23;;
22737;SDS011;11536;50.860;4.286;2022-12-11T09:10:04;36.53;;;16.55;;
22737;SDS011;11536;50.860;4.286;2022-12-11T09:12:31;43.58;;;17.33;;
22737;SDS011;11536;50.860;4.286;2022-12-11T09:14:58;36.17;;;16.15;;
22737;SDS011;11536;50.860;4.286;2022-12-11T09:17:24;36.13;;;15.68;;
22737;SDS011;11536;50.860;4.286;2022-12-11T09:19:49;39.13;;;16.42;;
22737;SDS011;11536;50.860;4.286;2022-12-11T09:22:15;35.50;;;15.10;;
22737;SDS011;11536;50.860;4.286;2022-12-11T09:24:41;40.60;;;16.27;;
22737;SDS011;11536;50.860;4.286;2022-12-11T09:27:06;38.55;;;15.90;;
22737;SDS011;11536;50.860;4.286;2022-12-11T09:29:32;38.33;;;15.40;;
22737;SDS011;11536;50.860;4.286;2022-12-11T09:31:57;39.55;;;16.33;;
22737;SDS011;11536;50.860;4.286;2022-12-11T09:34:23;34.70;;;15.25;;
22737;SDS011;11536;50.860;4.286;2022-12-11T09:36:49;35.65;;;15.75;;
22737;SDS011;11536;50.860;4.286;2022-12-11T09:39:15;33.10;;;15.95;;
22737;SDS011;11536;50.860;4.286;2022-12-11T09:47:15;35.78;;;15.25;;
22737;SDS011;11536;50.860;4.286;2022-12-11T09:49:48;41.67;;;16.42;;
22737;SDS011;11536;50.860;4.286;2022-12-11T09:52:18;35.35;;;16.17;;
22737;SDS011;11536;50.860;4.286;2022-12-11T09:54:59;37.78;;;16.30;;
22737;SDS011;11536;50.860;4.286;2022-12-11T10:00:29;37.83;;;15.63;;
22737;SDS011;11536;50.860;4.286;2022-12-11T10:08:30;41.33;;;18.95;;
22737;SDS011;11536;50.860;4.286;2022-12-11T10:14:00;38.63;;;17.42;;
22737;SDS011;11536;50.860;4.286;2022-12-11T10:16:35;40.85;;;17.77;;
22737;SDS011;11536;50.860;4.286;2022-12-11T10:19:16;41.22;;;17.55;;
22737;SDS011;11536;50.860;4.286;2022-12-11T10:21:44;38.58;;;17.17;;
22737;SDS011;11536;50.860;4.286;2022-12-11T10:24:13;40.22;;;16.90;;
22737;SDS011;11536;50.860;4.286;2022-12-11T10:26:51;41.75;;;17.27;;
22737;SDS011;11536;50.860;4.286;2022-12-11T10:29:21;41.45;;;15.82;;
22737;SDS011;11536;50.860;4.286;2022-12-11T10:31:57;48.72;;;18.48;;
22737;SDS011;11536;50.860;4.286;2022-12-11T10:34:31;42.97;;;16.58;;
22737;SDS011;11536;50.860;4.286;2022-12-11T10:36:59;41.97;;;16.00;;
22737;SDS011;11536;50.860;4.286;2022-12-11T10:39:29;38.92;;;16.17;;
22737;SDS011;11536;50.860;4.286;2022-12-11T10:41:56;38.25;;;15.07;;
22737;SDS011;11536;50.860;4.286;2022-12-11T10:44:28;38.70;;;15.63;;
22737;SDS011;11536;50.860;4.286;2022-12-11T10:47:02;35.70;;;14.18;;
22737;SDS011;11536;50.860;4.286;2022-12-11T10:49:31;35.80;;;13.88;;
22737;SDS011;11536;50.860;4.286;2022-12-11T10:52:00;38.22;;;14.70;;
22737;SDS011;11536;50.860;4.286;2022-12-11T10:54:37;35.92;;;14.55;;
22737;SDS011;11536;50.860;4.286;2022-12-11T10:57:06;37.58;;;15.13;;
22737;SDS011;11536;50.860;4.286;2022-12-11T10:59:35;36.40;;;15.13;;
22737;SDS011;11536;50.860;4.286;2022-12-11T11:02:20;36.65;;;14.50;;
22737;SDS011;11536;50.860;4.286;2022-12-11T11:04:47;35.50;;;15.15;;
22737;SDS011;11536;50.860;4.286;2022-12-11T11:09:42;38.75;;;13.88;;
22737;SDS011;11536;50.860;4.286;2022-12-11T11:12:21;34.05;;;13.40;;
22737;SDS011;11536;50.860;4.286;2022-12-11T11:15:03;34.97;;;14.10;;
22737;SDS011;11536;50.860;4.286;2022-12-11T11:17:47;37.95;;;14.57;;
22737;SDS011;11536;50.860;4.286;2022-12-11T11:20:16;35.67;;;15.32;;
22737;SDS011;11536;50.860;4.286;2022-12-11T11:22:48;35.33;;;14.65;;
22737;SDS011;11536;50.860;4.286;2022-12-11T11:25:20;34.97;;;13.90;;
22737;SDS011;11536;50.860;4.286;2022-12-11T11:27:54;35.53;;;13.02;;
22737;SDS011;11536;50.860;4.286;2022-12-11T11:30:24;37.20;;;15.23;;
22737;SDS011;11536;50.860;4.286;2022-12-11T11:32:53;34.15;;;13.48;;
22737;SDS011;11536;50.860;4.286;2022-12-11T11:35:29;29.60;;;12.50;;
22737;SDS011;11536;50.860;4.286;2022-12-11T11:40:29;32.13;;;12.38;;
22737;SDS011;11536;50.860;4.286;2022-12-11T11:43:01;31.40;;;12.70;;
22737;SDS011;11536;50.860;4.286;2022-12-11T11:45:51;29.13;;;9.75;;
22737;SDS011;11536;50.860;4.286;2022-12-11T11:50:53;31.02;;;12.13;;
22737;SDS011;11536;50.860;4.286;2022-12-11T11:53:24;28.95;;;11.45;;
22737;SDS011;11536;50.860;4.286;2022-12-11T11:56:02;29.00;;;11.38;;
22737;SDS011;11536;50.860;4.286;2022-12-11T11:58:38;26.33;;;10.50;;
22737;SDS011;11536;50.860;4.286;2022-12-11T12:01:17;30.23;;;11.70;;
22737;SDS011;11536;50.860;4.286;2022-12-11T12:03:44;29.88;;;11.65;;
22737;SDS011;11536;50.860;4.286;2022-12-11T12:06:20;29.65;;;11.27;;
22737;SDS011;11536;50.860;4.286;2022-12-11T12:12:20;29.98;;;11.30;;
22737;SDS011;11536;50.860;4.286;2022-12-11T12:17:57;32.35;;;12.27;;
22737;SDS011;11536;50.860;4.286;2022-12-11T12:25:58;30.13;;;12.55;;
22737;SDS011;11536;50.860;4.286;2022-12-11T12:37:30;34.75;;;13.40;;
22737;SDS011;11536;50.860;4.286;2022-12-11T12:48:45;35.60;;;14.32;;
22737;SDS011;11536;50.860;4.286;2022-12-11T12:51:15;33.00;;;13.52;;
22737;SDS011;11536;50.860;4.286;2022-12-11T12:53:45;34.92;;;14.43;;
22737;SDS011;11536;50.860;4.286;2022-12-11T12:56:17;38.28;;;15.02;;
22737;SDS011;11536;50.860;4.286;2022-12-11T12:58:45;39.67;;;15.18;;
22737;SDS011;11536;50.860;4.286;2022-12-11T13:03:47;36.10;;;13.82;;
22737;SDS011;11536;50.860;4.286;2022-12-11T13:06:15;32.55;;;13.80;;
22737;SDS011;11536;50.860;4.286;2022-12-11T13:08:53;34.60;;;14.93;;
22737;SDS011;11536;50.860;4.286;2022-12-11T13:11:19;38.75;;;14.95;;
22737;SDS011;11536;50.860;4.286;2022-12-11T13:16:47;36.10;;;15.10;;
22737;SDS011;11536;50.860;4.286;2022-12-11T13:21:54;39.10;;;15.30;;
22737;SDS011;11536;50.860;4.286;2022-12-11T13:24:28;38.08;;;14.90;;
22737;SDS011;11536;50.860;4.286;2022-12-11T13:27:09;34.00;;;14.60;;
22737;SDS011;11536;50.860;4.286;2022-12-11T13:29:46;39.03;;;15.00;;
22737;SDS011;11536;50.860;4.286;2022-12-11T13:34:39;40.92;;;16.15;;
22737;SDS011;11536;50.860;4.286;2022-12-11T13:37:19;36.22;;;15.10;;
22737;SDS011;11536;50.860;4.286;2022-12-11T13:40:03;41.78;;;17.45;;
22737;SDS011;11536;50.860;4.286;2022-12-11T13:42:52;45.83;;;16.05;;
22737;SDS011;11536;50.860;4.286;2022-12-11T13:45:26;40.08;;;15.57;;
22737;SDS011;11536;50.860;4.286;2022-12-11T13:48:03;38.42;;;15.35;;
22737;SDS011;11536;50.860;4.286;2022-12-11T13:50:54;44.53;;;17.17;;
22737;SDS011;11536;50.860;4.286;2022-12-11T13:53:22;40.50;;;16.83;;
22737;SDS011;11536;50.860;4.286;2022-12-11T13:56:01;39.28;;;16.17;;
22737;SDS011;11536;50.860;4.286;2022-12-11T13:58:36;42.50;;;16.67;;
22737;SDS011;11536;50.860;4.286;2022-12-11T14:03:50;46.65;;;16.13;;
22737;SDS011;11536;50.860;4.286;2022-12-11T14:06:17;40.35;;;17.08;;
22737;SDS011;11536;50.860;4.286;2022-12-11T14:08:43;39.65;;;16.30;;
22737;SDS011;11536;50.860;4.286;2022-12-11T14:11:22;42.15;;;17.15;;
22737;SDS011;11536;50.860;4.286;2022-12-11T14:13:51;40.75;;;17.75;;
22737;SDS011;11536;50.860;4.286;2022-12-11T14:16:21;38.55;;;16.80;;
22737;SDS011;11536;50.860;4.286;2022-12-11T14:18:48;43.60;;;18.10;;
22737;SDS011;11536;50.860;4.286;2022-12-11T14:21:15;41.17;;;16.70;;
22737;SDS011;11536;50.860;4.286;2022-12-11T14:23:49;46.53;;;19.85;;
22737;SDS011;11536;50.860;4.286;2022-12-11T14:26:22;49.55;;;19.48;;
22737;SDS011;11536;50.860;4.286;2022-12-11T14:28:52;42.17;;;18.92;;
22737;SDS011;11536;50.860;4.286;2022-12-11T14:33:53;43.22;;;18.35;;
22737;SDS011;11536;50.860;4.286;2022-12-11T14:36:24;41.78;;;16.60;;
22737;SDS011;11536;50.860;4.286;2022-12-11T14:38:56;40.22;;;16.60;;
22737;SDS011;11536;50.860;4.286;2022-12-11T14:41:50;40.95;;;16.70;;
22737;SDS011;11536;50.860;4.286;2022-12-11T14:44:17;42.08;;;16.63;;
22737;SDS011;11536;50.860;4.286;2022-12-11T14:52:04;38.58;;;15.32;;
22737;SDS011;11536;50.860;4.286;2022-12-11T14:54:39;39.53;;;16.73;;
22737;SDS011;11536;50.860;4.286;2022-12-11T14:57:14;38.08;;;16.05;;
22737;SDS011;11536;50.860;4.286;2022-12-11T14:59:49;38.20;;;17.02;;
22737;SDS011;11536;50.860;4.286;2022-12-11T15:02:30;40.38;;;16.58;;
22737;SDS011;11536;50.860;4.286;2022-12-11T15:05:00;41.70;;;17.00;;
22737;SDS011;11536;50.860;4.286;2022-12-11T15:07:35;35.80;;;15.68;;
22737;SDS011;11536;50.860;4.286;2022-12-11T15:10:02;34.33;;;15.73;;
22737;SDS011;11536;50.860;4.286;2022-12-11T15:12:28;39.75;;;16.15;;
22737;SDS011;11536;50.860;4.286;2022-12-11T15:14:56;37.47;;;15.52;;
22737;SDS011;11536;50.860;4.286;2022-12-11T15:17:29;37.13;;;14.88;;
22737;SDS011;11536;50.860;4.286;2022-12-11T15:20:04;41.47;;;17.50;;
22737;SDS011;11536;50.860;4.286;2022-12-11T15:22:34;37.45;;;17.05;;
22737;SDS011;11536;50.860;4.286;2022-12-11T15:25:01;38.08;;;16.60;;
22737;SDS011;11536;50.860;4.286;2022-12-11T15:30:13;32.80;;;15.98;;
22737;SDS011;11536;50.860;4.286;2022-12-11T15:32:39;30.75;;;15.52;;
22737;SDS011;11536;50.860;4.286;2022-12-11T15:35:24;37.92;;;16.45;;
22737;SDS011;11536;50.860;4.286;2022-12-11T15:37:51;34.67;;;16.08;;
22737;SDS011;11536;50.860;4.286;2022-12-11T15:40:18;36.55;;;16.83;;
22737;SDS011;11536;50.860;4.286;2022-12-11T15:42:44;30.80;;;15.23;;
22737;SDS011;11536;50.860;4.286;2022-12-11T15:45:18;37.45;;;15.00;;
22737;SDS011;11536;50.860;4.286;2022-12-11T15:47:45;28.00;;;14.07;;
22737;SDS011;11536;50.860;4.286;2022-12-11T15:50:19;30.58;;;15.20;;
22737;SDS011;11536;50.860;4.286;2022-12-11T15:52:47;30.23;;;14.50;;
22737;SDS011;11536;50.860;4.286;2022-12-11T15:55:14;31.17;;;14.40;;
22737;SDS011;11536;50.860;4.286;2022-12-11T15:57:44;33.00;;;14.57;;
22737;SDS011;11536;50.860;4.286;2022-12-11T16:00:13;28.08;;;14.50;;
22737;SDS011;11536;50.860;4.286;2022-12-11T16:02:40;31.70;;;14.02;;
22737;SDS011;11536;50.860;4.286;2022-12-11T16:05:06;27.35;;;13.38;;
22737;SDS011;11536;50.860;4.286;2022-12-11T16:07:32;27.00;;;12.88;;
22737;SDS011;11536;50.860;4.286;2022-12-11T16:09:58;25.15;;;13.25;;
22737;SDS011;11536;50.860;4.286;2022-12-11T16:12:24;28.67;;;13.25;;